Herschel Island, Yukon

Past 24 Hour Conditions

Date / Time
(PDT)
Conditions Temp
(°F)
Humidity
(%)
Dew Point
(°F)
Wind
(mph)
Pressure
(inches)
Vis
(mi)
Wind Chill
22 October 2014
19:00 N/A 22 83 17 SE 16 gust 23 30.0 N/A 8
18:00 N/A 22 85 18 ESE 19 30.0 N/A 7
17:00 N/A 21   84 17 SE 23 30.0 N/A 5
16:00 N/A 22 84 18 SE 22 30.0 N/A 6
15:00 N/A 22 85 18 SE 19 gust 24 30.0 N/A 8
14:00 N/A 23 82 18 ESE 21 gust 28 30.0 N/A 7
13:00 N/A 24 81 19 SE 21 30.0 N/A 9
12:00 N/A 23 81 19 ESE 22 30.0 N/A 8
11:00 N/A 24 84 19 ESE 21 gust 26 30.0 N/A 8
10:00 N/A 24 84 19 ESE 20 gust 26 30.0 N/A 9
9:00 N/A 24 85 20 SE 22 30.0 N/A 8
8:00 N/A 24 84 20 SE 19 29.9 N/A 10
7:00 N/A 24 83 20 SE 20 29.9 N/A 10
6:00 N/A 25 84 20 SE 21 gust 30 29.9 N/A 10
5:00 N/A 25 84 21 ESE 23 29.9 N/A 10
4:00 N/A 25 85 21 ESE 25 29.9 N/A 10
3:00 N/A 26   85 22 ESE 21 29.9 N/A 11
2:00 N/A 26   86 22 ESE 21 29.9 N/A 11
1:00 N/A 26   87 23 SE 24 29.9 N/A 11
00:00 N/A 26   91 24 ESE 25 29.9 N/A 11
21 October 2014
23:00 N/A 26   93 24 SE 24 29.9 N/A 11
22:00 N/A 26   94 24 ESE 24 gust 30 29.9 N/A 11
21:00 N/A 26   95 25 ESE 24 29.9 N/A 11
20:00 N/A 26   96 25 ESE 25 29.9 N/A 11
19:00 N/A 26   97 25 ESE 26 29.9 N/A 11
N/A Not available
↑ Highest temperature
↓ Lowest temperature
* Value not significant.

If you require additional historical weather information, please visit Climate Data Online.

Date modified: